sensor_id;sensor_type;location;lat;lon;timestamp;P1;durP1;ratioP1;P2;durP2;ratioP2
14015;SDS011;7083;48.854;9.158;2023-06-10T00:01:23;8.07;;;7.47;;
14015;SDS011;7083;48.854;9.158;2023-06-10T00:03:50;8.17;;;7.53;;
14015;SDS011;7083;48.854;9.158;2023-06-10T00:06:17;8.67;;;8.03;;
14015;SDS011;7083;48.854;9.158;2023-06-10T00:08:46;8.57;;;7.87;;
14015;SDS011;7083;48.854;9.158;2023-06-10T00:11:14;8.67;;;7.90;;
14015;SDS011;7083;48.854;9.158;2023-06-10T00:13:41;8.93;;;7.77;;
14015;SDS011;7083;48.854;9.158;2023-06-10T00:16:07;9.20;;;8.50;;
14015;SDS011;7083;48.854;9.158;2023-06-10T00:18:34;7.93;;;7.33;;
14015;SDS011;7083;48.854;9.158;2023-06-10T00:21:03;8.53;;;7.83;;
14015;SDS011;7083;48.854;9.158;2023-06-10T00:23:30;8.53;;;7.83;;
14015;SDS011;7083;48.854;9.158;2023-06-10T00:26:03;8.40;;;7.80;;
14015;SDS011;7083;48.854;9.158;2023-06-10T00:28:31;8.57;;;8.07;;
14015;SDS011;7083;48.854;9.158;2023-06-10T00:30:58;8.73;;;8.13;;
14015;SDS011;7083;48.854;9.158;2023-06-10T00:33:25;9.07;;;8.37;;
14015;SDS011;7083;48.854;9.158;2023-06-10T00:35:51;9.10;;;8.40;;
14015;SDS011;7083;48.854;9.158;2023-06-10T00:38:18;8.73;;;8.13;;
14015;SDS011;7083;48.854;9.158;2023-06-10T00:40:45;9.07;;;8.23;;
14015;SDS011;7083;48.854;9.158;2023-06-10T00:43:12;9.13;;;8.33;;
14015;SDS011;7083;48.854;9.158;2023-06-10T00:45:40;8.40;;;7.73;;
14015;SDS011;7083;48.854;9.158;2023-06-10T00:48:06;8.73;;;8.10;;
14015;SDS011;7083;48.854;9.158;2023-06-10T00:50:34;8.40;;;7.77;;
14015;SDS011;7083;48.854;9.158;2023-06-10T00:53:04;8.60;;;8.00;;
14015;SDS011;7083;48.854;9.158;2023-06-10T00:55:30;7.97;;;7.47;;
14015;SDS011;7083;48.854;9.158;2023-06-10T00:57:58;9.13;;;8.23;;
14015;SDS011;7083;48.854;9.158;2023-06-10T01:00:26;8.93;;;8.20;;
14015;SDS011;7083;48.854;9.158;2023-06-10T01:02:54;9.50;;;8.60;;
14015;SDS011;7083;48.854;9.158;2023-06-10T01:05:20;7.80;;;7.27;;
14015;SDS011;7083;48.854;9.158;2023-06-10T01:07:49;8.97;;;8.37;;
14015;SDS011;7083;48.854;9.158;2023-06-10T01:10:24;8.20;;;7.67;;
14015;SDS011;7083;48.854;9.158;2023-06-10T01:12:58;8.53;;;7.93;;
14015;SDS011;7083;48.854;9.158;2023-06-10T01:15:27;9.00;;;8.27;;
14015;SDS011;7083;48.854;9.158;2023-06-10T01:17:57;8.77;;;7.97;;
14015;SDS011;7083;48.854;9.158;2023-06-10T01:20:25;9.07;;;8.33;;
14015;SDS011;7083;48.854;9.158;2023-06-10T01:22:55;9.43;;;8.73;;
14015;SDS011;7083;48.854;9.158;2023-06-10T01:25:23;8.47;;;7.93;;
14015;SDS011;7083;48.854;9.158;2023-06-10T01:27:53;9.57;;;8.87;;
14015;SDS011;7083;48.854;9.158;2023-06-10T01:30:26;9.23;;;8.40;;
14015;SDS011;7083;48.854;9.158;2023-06-10T01:32:58;8.90;;;8.30;;
14015;SDS011;7083;48.854;9.158;2023-06-10T01:35:27;8.27;;;7.67;;
14015;SDS011;7083;48.854;9.158;2023-06-10T01:37:57;8.70;;;8.10;;
14015;SDS011;7083;48.854;9.158;2023-06-10T01:40:26;8.30;;;7.70;;
14015;SDS011;7083;48.854;9.158;2023-06-10T01:42:54;8.40;;;7.87;;
14015;SDS011;7083;48.854;9.158;2023-06-10T01:45:20;9.70;;;9.00;;
14015;SDS011;7083;48.854;9.158;2023-06-10T01:47:47;8.87;;;8.07;;
14015;SDS011;7083;48.854;9.158;2023-06-10T01:50:14;8.60;;;7.87;;
14015;SDS011;7083;48.854;9.158;2023-06-10T01:52:41;8.83;;;8.23;;
14015;SDS011;7083;48.854;9.158;2023-06-10T01:55:09;9.17;;;8.47;;
14015;SDS011;7083;48.854;9.158;2023-06-10T01:57:36;11.50;;;8.87;;
14015;SDS011;7083;48.854;9.158;2023-06-10T02:00:03;9.37;;;8.40;;
14015;SDS011;7083;48.854;9.158;2023-06-10T02:02:30;8.27;;;7.77;;
14015;SDS011;7083;48.854;9.158;2023-06-10T02:04:57;8.13;;;7.63;;
14015;SDS011;7083;48.854;9.158;2023-06-10T02:07:23;8.50;;;7.90;;
14015;SDS011;7083;48.854;9.158;2023-06-10T02:09:50;7.83;;;7.33;;
14015;SDS011;7083;48.854;9.158;2023-06-10T02:12:18;17.17;;;7.70;;
14015;SDS011;7083;48.854;9.158;2023-06-10T02:14:44;7.63;;;7.07;;
14015;SDS011;7083;48.854;9.158;2023-06-10T02:17:11;7.47;;;6.87;;
14015;SDS011;7083;48.854;9.158;2023-06-10T02:19:39;7.33;;;6.73;;
14015;SDS011;7083;48.854;9.158;2023-06-10T02:22:07;8.63;;;7.83;;
14015;SDS011;7083;48.854;9.158;2023-06-10T02:24:35;6.70;;;6.30;;
14015;SDS011;7083;48.854;9.158;2023-06-10T02:27:03;7.17;;;6.70;;
14015;SDS011;7083;48.854;9.158;2023-06-10T02:29:33;7.27;;;6.80;;
14015;SDS011;7083;48.854;9.158;2023-06-10T02:32:00;7.00;;;6.43;;
14015;SDS011;7083;48.854;9.158;2023-06-10T02:34:28;9.30;;;6.43;;
14015;SDS011;7083;48.854;9.158;2023-06-10T02:36:55;6.60;;;6.20;;
14015;SDS011;7083;48.854;9.158;2023-06-10T02:39:21;7.03;;;6.53;;
14015;SDS011;7083;48.854;9.158;2023-06-10T02:41:48;6.67;;;6.27;;
14015;SDS011;7083;48.854;9.158;2023-06-10T02:44:15;6.67;;;6.27;;
14015;SDS011;7083;48.854;9.158;2023-06-10T02:46:44;6.97;;;6.23;;
14015;SDS011;7083;48.854;9.158;2023-06-10T02:49:10;6.70;;;6.10;;
14015;SDS011;7083;48.854;9.158;2023-06-10T02:51:37;7.60;;;7.00;;
14015;SDS011;7083;48.854;9.158;2023-06-10T02:54:04;7.57;;;7.07;;
14015;SDS011;7083;48.854;9.158;2023-06-10T02:56:31;7.00;;;6.50;;
14015;SDS011;7083;48.854;9.158;2023-06-10T02:58:58;6.53;;;6.13;;
14015;SDS011;7083;48.854;9.158;2023-06-10T03:01:25;6.10;;;5.70;;
14015;SDS011;7083;48.854;9.158;2023-06-10T03:03:53;6.33;;;5.83;;
14015;SDS011;7083;48.854;9.158;2023-06-10T03:06:21;6.20;;;5.80;;
14015;SDS011;7083;48.854;9.158;2023-06-10T03:08:49;6.50;;;5.83;;
14015;SDS011;7083;48.854;9.158;2023-06-10T03:11:16;6.80;;;6.37;;
14015;SDS011;7083;48.854;9.158;2023-06-10T03:13:44;6.43;;;6.03;;
14015;SDS011;7083;48.854;9.158;2023-06-10T03:16:11;6.13;;;5.73;;
14015;SDS011;7083;48.854;9.158;2023-06-10T03:18:38;6.07;;;5.67;;
14015;SDS011;7083;48.854;9.158;2023-06-10T03:21:06;6.17;;;5.77;;
14015;SDS011;7083;48.854;9.158;2023-06-10T03:23:33;6.13;;;5.73;;
14015;SDS011;7083;48.854;9.158;2023-06-10T03:26:00;6.50;;;6.00;;
14015;SDS011;7083;48.854;9.158;2023-06-10T03:28:27;6.23;;;5.83;;
14015;SDS011;7083;48.854;9.158;2023-06-10T03:30:53;6.40;;;6.00;;
14015;SDS011;7083;48.854;9.158;2023-06-10T03:33:20;7.20;;;6.70;;
14015;SDS011;7083;48.854;9.158;2023-06-10T03:35:47;6.63;;;6.23;;
14015;SDS011;7083;48.854;9.158;2023-06-10T03:38:15;6.83;;;6.43;;
14015;SDS011;7083;48.854;9.158;2023-06-10T03:40:41;7.13;;;6.60;;
14015;SDS011;7083;48.854;9.158;2023-06-10T03:43:08;6.80;;;6.37;;
14015;SDS011;7083;48.854;9.158;2023-06-10T03:45:35;6.60;;;6.10;;
14015;SDS011;7083;48.854;9.158;2023-06-10T03:48:02;6.87;;;6.37;;
14015;SDS011;7083;48.854;9.158;2023-06-10T03:50:29;7.73;;;7.13;;
14015;SDS011;7083;48.854;9.158;2023-06-10T03:52:56;6.57;;;6.17;;
14015;SDS011;7083;48.854;9.158;2023-06-10T03:55:24;6.53;;;6.13;;
14015;SDS011;7083;48.854;9.158;2023-06-10T03:57:50;7.07;;;6.57;;
14015;SDS011;7083;48.854;9.158;2023-06-10T04:00:18;6.87;;;6.37;;
14015;SDS011;7083;48.854;9.158;2023-06-10T04:02:46;7.03;;;6.53;;
14015;SDS011;7083;48.854;9.158;2023-06-10T04:05:14;6.93;;;6.30;;
14015;SDS011;7083;48.854;9.158;2023-06-10T04:07:42;6.83;;;6.23;;
14015;SDS011;7083;48.854;9.158;2023-06-10T04:10:09;7.20;;;6.70;;
14015;SDS011;7083;48.854;9.158;2023-06-10T04:12:37;6.97;;;6.57;;
14015;SDS011;7083;48.854;9.158;2023-06-10T04:15:05;6.90;;;6.50;;
14015;SDS011;7083;48.854;9.158;2023-06-10T04:17:32;7.40;;;6.90;;
14015;SDS011;7083;48.854;9.158;2023-06-10T04:19:59;7.63;;;7.13;;
14015;SDS011;7083;48.854;9.158;2023-06-10T04:22:26;7.30;;;6.80;;
14015;SDS011;7083;48.854;9.158;2023-06-10T04:24:52;7.37;;;6.87;;
14015;SDS011;7083;48.854;9.158;2023-06-10T04:27:19;6.70;;;6.20;;
14015;SDS011;7083;48.854;9.158;2023-06-10T04:29:47;7.90;;;7.20;;
14015;SDS011;7083;48.854;9.158;2023-06-10T04:32:14;7.00;;;6.60;;
14015;SDS011;7083;48.854;9.158;2023-06-10T04:34:40;6.53;;;6.03;;
14015;SDS011;7083;48.854;9.158;2023-06-10T04:37:07;7.53;;;7.03;;
14015;SDS011;7083;48.854;9.158;2023-06-10T04:39:34;8.30;;;7.70;;
14015;SDS011;7083;48.854;9.158;2023-06-10T04:42:06;8.13;;;7.53;;
14015;SDS011;7083;48.854;9.158;2023-06-10T04:44:43;7.57;;;7.07;;
14015;SDS011;7083;48.854;9.158;2023-06-10T04:47:11;8.37;;;7.77;;
14015;SDS011;7083;48.854;9.158;2023-06-10T04:49:37;8.33;;;7.73;;
14015;SDS011;7083;48.854;9.158;2023-06-10T04:52:04;7.73;;;7.23;;
14015;SDS011;7083;48.854;9.158;2023-06-10T04:54:31;7.73;;;7.23;;
14015;SDS011;7083;48.854;9.158;2023-06-10T04:56:58;7.17;;;6.67;;
14015;SDS011;7083;48.854;9.158;2023-06-10T04:59:25;7.53;;;6.93;;
14015;SDS011;7083;48.854;9.158;2023-06-10T05:01:52;7.87;;;7.33;;
14015;SDS011;7083;48.854;9.158;2023-06-10T05:04:21;8.03;;;7.43;;
14015;SDS011;7083;48.854;9.158;2023-06-10T05:06:47;7.60;;;7.10;;
14015;SDS011;7083;48.854;9.158;2023-06-10T05:09:14;8.00;;;7.43;;
14015;SDS011;7083;48.854;9.158;2023-06-10T05:11:41;8.27;;;7.67;;
14015;SDS011;7083;48.854;9.158;2023-06-10T05:14:08;7.67;;;7.17;;
14015;SDS011;7083;48.854;9.158;2023-06-10T05:16:35;7.60;;;7.00;;
14015;SDS011;7083;48.854;9.158;2023-06-10T05:19:01;7.73;;;7.20;;
14015;SDS011;7083;48.854;9.158;2023-06-10T05:21:29;7.53;;;6.77;;
14015;SDS011;7083;48.854;9.158;2023-06-10T05:23:56;7.87;;;7.27;;
14015;SDS011;7083;48.854;9.158;2023-06-10T05:26:23;8.80;;;7.43;;
14015;SDS011;7083;48.854;9.158;2023-06-10T05:28:50;7.80;;;7.30;;
14015;SDS011;7083;48.854;9.158;2023-06-10T05:31:17;7.00;;;6.60;;
14015;SDS011;7083;48.854;9.158;2023-06-10T05:33:44;7.43;;;6.93;;
14015;SDS011;7083;48.854;9.158;2023-06-10T05:36:10;6.97;;;6.37;;
14015;SDS011;7083;48.854;9.158;2023-06-10T05:38:38;6.53;;;6.13;;
14015;SDS011;7083;48.854;9.158;2023-06-10T05:41:05;7.00;;;6.50;;
14015;SDS011;7083;48.854;9.158;2023-06-10T05:43:32;6.80;;;6.30;;
14015;SDS011;7083;48.854;9.158;2023-06-10T05:45:58;5.97;;;5.47;;
14015;SDS011;7083;48.854;9.158;2023-06-10T05:48:25;6.30;;;5.90;;
14015;SDS011;7083;48.854;9.158;2023-06-10T05:50:52;5.93;;;5.50;;
14015;SDS011;7083;48.854;9.158;2023-06-10T05:53:18;5.80;;;5.40;;
14015;SDS011;7083;48.854;9.158;2023-06-10T05:55:46;5.10;;;4.80;;
14015;SDS011;7083;48.854;9.158;2023-06-10T05:58:13;5.40;;;5.10;;
14015;SDS011;7083;48.854;9.158;2023-06-10T06:00:40;5.90;;;5.50;;
14015;SDS011;7083;48.854;9.158;2023-06-10T06:03:07;5.57;;;5.00;;
14015;SDS011;7083;48.854;9.158;2023-06-10T06:05:34;5.97;;;5.67;;
14015;SDS011;7083;48.854;9.158;2023-06-10T06:08:03;5.53;;;5.17;;
14015;SDS011;7083;48.854;9.158;2023-06-10T06:10:30;5.43;;;5.07;;
14015;SDS011;7083;48.854;9.158;2023-06-10T06:12:58;5.73;;;5.33;;
14015;SDS011;7083;48.854;9.158;2023-06-10T06:15:25;5.50;;;5.20;;
14015;SDS011;7083;48.854;9.158;2023-06-10T06:17:52;6.13;;;5.73;;
14015;SDS011;7083;48.854;9.158;2023-06-10T06:20:19;5.73;;;5.33;;
14015;SDS011;7083;48.854;9.158;2023-06-10T06:22:46;6.30;;;5.90;;
14015;SDS011;7083;48.854;9.158;2023-06-10T06:25:12;5.30;;;5.00;;
14015;SDS011;7083;48.854;9.158;2023-06-10T06:27:39;5.80;;;5.40;;
14015;SDS011;7083;48.854;9.158;2023-06-10T06:30:08;6.27;;;5.87;;
14015;SDS011;7083;48.854;9.158;2023-06-10T06:32:35;5.40;;;5.10;;
14015;SDS011;7083;48.854;9.158;2023-06-10T06:35:02;6.17;;;5.73;;
14015;SDS011;7083;48.854;9.158;2023-06-10T06:37:32;6.93;;;6.43;;
14015;SDS011;7083;48.854;9.158;2023-06-10T06:39:59;5.73;;;5.43;;
14015;SDS011;7083;48.854;9.158;2023-06-10T06:42:26;5.23;;;4.93;;
14015;SDS011;7083;48.854;9.158;2023-06-10T06:44:52;5.73;;;5.33;;
14015;SDS011;7083;48.854;9.158;2023-06-10T06:47:20;6.63;;;6.13;;
14015;SDS011;7083;48.854;9.158;2023-06-10T06:49:48;6.53;;;6.00;;
14015;SDS011;7083;48.854;9.158;2023-06-10T06:52:14;6.00;;;5.60;;
14015;SDS011;7083;48.854;9.158;2023-06-10T06:54:41;5.80;;;5.40;;
14015;SDS011;7083;48.854;9.158;2023-06-10T06:57:08;5.63;;;5.23;;
14015;SDS011;7083;48.854;9.158;2023-06-10T06:59:35;5.63;;;5.33;;
14015;SDS011;7083;48.854;9.158;2023-06-10T07:02:02;6.23;;;5.77;;
14015;SDS011;7083;48.854;9.158;2023-06-10T07:04:30;5.63;;;5.33;;
14015;SDS011;7083;48.854;9.158;2023-06-10T07:06:56;5.83;;;5.43;;
14015;SDS011;7083;48.854;9.158;2023-06-10T07:09:23;5.37;;;5.07;;
14015;SDS011;7083;48.854;9.158;2023-06-10T07:11:50;5.27;;;4.87;;
14015;SDS011;7083;48.854;9.158;2023-06-10T07:14:16;5.47;;;5.17;;
14015;SDS011;7083;48.854;9.158;2023-06-10T07:16:43;5.80;;;5.47;;
14015;SDS011;7083;48.854;9.158;2023-06-10T07:19:11;5.33;;;4.93;;
14015;SDS011;7083;48.854;9.158;2023-06-10T07:21:39;5.43;;;5.13;;
14015;SDS011;7083;48.854;9.158;2023-06-10T07:24:06;5.60;;;5.30;;
14015;SDS011;7083;48.854;9.158;2023-06-10T07:26:32;5.23;;;4.93;;
14015;SDS011;7083;48.854;9.158;2023-06-10T07:28:59;6.00;;;5.50;;
14015;SDS011;7083;48.854;9.158;2023-06-10T07:31:26;4.93;;;4.63;;
14015;SDS011;7083;48.854;9.158;2023-06-10T07:33:52;5.40;;;5.07;;
14015;SDS011;7083;48.854;9.158;2023-06-10T07:36:19;5.07;;;4.77;;
14015;SDS011;7083;48.854;9.158;2023-06-10T07:38:47;5.47;;;5.17;;
14015;SDS011;7083;48.854;9.158;2023-06-10T07:41:14;4.37;;;4.17;;
14015;SDS011;7083;48.854;9.158;2023-06-10T07:43:42;4.90;;;4.60;;
14015;SDS011;7083;48.854;9.158;2023-06-10T07:46:09;4.90;;;4.57;;
14015;SDS011;7083;48.854;9.158;2023-06-10T07:48:36;5.07;;;4.77;;
14015;SDS011;7083;48.854;9.158;2023-06-10T07:51:02;4.43;;;4.13;;
14015;SDS011;7083;48.854;9.158;2023-06-10T07:53:29;5.90;;;5.50;;
14015;SDS011;7083;48.854;9.158;2023-06-10T07:55:57;5.40;;;5.00;;
14015;SDS011;7083;48.854;9.158;2023-06-10T07:58:24;5.47;;;5.13;;
14015;SDS011;7083;48.854;9.158;2023-06-10T08:00:51;5.50;;;5.10;;
14015;SDS011;7083;48.854;9.158;2023-06-10T08:03:17;5.90;;;5.37;;
14015;SDS011;7083;48.854;9.158;2023-06-10T08:05:44;5.80;;;5.50;;
14015;SDS011;7083;48.854;9.158;2023-06-10T08:08:10;5.27;;;4.97;;
14015;SDS011;7083;48.854;9.158;2023-06-10T08:10:37;6.47;;;5.80;;
14015;SDS011;7083;48.854;9.158;2023-06-10T08:13:05;7.30;;;5.87;;
14015;SDS011;7083;48.854;9.158;2023-06-10T08:15:32;6.03;;;5.57;;
14015;SDS011;7083;48.854;9.158;2023-06-10T08:17:59;5.37;;;5.07;;
14015;SDS011;7083;48.854;9.158;2023-06-10T08:20:25;5.43;;;5.13;;
14015;SDS011;7083;48.854;9.158;2023-06-10T08:22:52;6.10;;;5.70;;
14015;SDS011;7083;48.854;9.158;2023-06-10T08:25:19;5.60;;;5.30;;
14015;SDS011;7083;48.854;9.158;2023-06-10T08:27:47;6.40;;;5.60;;
14015;SDS011;7083;48.854;9.158;2023-06-10T08:30:15;6.00;;;5.60;;
14015;SDS011;7083;48.854;9.158;2023-06-10T08:32:43;5.77;;;5.47;;
14015;SDS011;7083;48.854;9.158;2023-06-10T08:35:10;6.13;;;5.73;;
14015;SDS011;7083;48.854;9.158;2023-06-10T08:37:36;6.10;;;5.70;;
14015;SDS011;7083;48.854;9.158;2023-06-10T08:40:03;5.83;;;5.43;;
14015;SDS011;7083;48.854;9.158;2023-06-10T08:42:36;5.50;;;5.00;;
14015;SDS011;7083;48.854;9.158;2023-06-10T08:45:09;5.73;;;5.23;;
14015;SDS011;7083;48.854;9.158;2023-06-10T08:47:44;5.37;;;5.07;;
14015;SDS011;7083;48.854;9.158;2023-06-10T08:50:12;6.03;;;5.70;;
14015;SDS011;7083;48.854;9.158;2023-06-10T08:52:43;6.13;;;5.57;;
14015;SDS011;7083;48.854;9.158;2023-06-10T08:55:14;5.30;;;5.00;;
14015;SDS011;7083;48.854;9.158;2023-06-10T08:57:44;6.07;;;5.67;;
14015;SDS011;7083;48.854;9.158;2023-06-10T09:00:13;4.90;;;4.67;;
14015;SDS011;7083;48.854;9.158;2023-06-10T09:02:40;5.80;;;5.40;;
14015;SDS011;7083;48.854;9.158;2023-06-10T09:05:08;5.40;;;5.10;;
14015;SDS011;7083;48.854;9.158;2023-06-10T09:07:40;5.90;;;5.50;;
14015;SDS011;7083;48.854;9.158;2023-06-10T09:10:07;5.50;;;5.00;;
14015;SDS011;7083;48.854;9.158;2023-06-10T09:12:34;5.43;;;5.13;;
14015;SDS011;7083;48.854;9.158;2023-06-10T09:15:03;5.30;;;5.00;;
14015;SDS011;7083;48.854;9.158;2023-06-10T09:17:32;5.30;;;5.00;;
14015;SDS011;7083;48.854;9.158;2023-06-10T09:20:01;5.23;;;4.77;;
14015;SDS011;7083;48.854;9.158;2023-06-10T09:22:30;5.30;;;5.00;;
14015;SDS011;7083;48.854;9.158;2023-06-10T09:25:03;6.17;;;4.60;;
14015;SDS011;7083;48.854;9.158;2023-06-10T09:27:32;4.33;;;4.13;;
14015;SDS011;7083;48.854;9.158;2023-06-10T09:29:59;4.93;;;4.43;;
14015;SDS011;7083;48.854;9.158;2023-06-10T09:32:25;4.70;;;4.30;;
14015;SDS011;7083;48.854;9.158;2023-06-10T09:34:53;4.50;;;4.20;;
14015;SDS011;7083;48.854;9.158;2023-06-10T09:37:20;4.23;;;4.03;;
14015;SDS011;7083;48.854;9.158;2023-06-10T09:40:01;4.87;;;4.53;;
14015;SDS011;7083;48.854;9.158;2023-06-10T09:42:34;4.60;;;4.30;;
14015;SDS011;7083;48.854;9.158;2023-06-10T09:45:02;4.57;;;4.27;;
14015;SDS011;7083;48.854;9.158;2023-06-10T09:47:30;4.37;;;4.17;;
14015;SDS011;7083;48.854;9.158;2023-06-10T09:49:56;4.07;;;3.87;;
14015;SDS011;7083;48.854;9.158;2023-06-10T09:52:23;4.20;;;3.90;;
14015;SDS011;7083;48.854;9.158;2023-06-10T09:54:51;4.83;;;4.43;;
14015;SDS011;7083;48.854;9.158;2023-06-10T09:57:19;4.43;;;4.13;;
14015;SDS011;7083;48.854;9.158;2023-06-10T09:59:47;3.87;;;3.63;;
14015;SDS011;7083;48.854;9.158;2023-06-10T10:02:14;4.23;;;4.03;;
14015;SDS011;7083;48.854;9.158;2023-06-10T10:04:44;4.60;;;4.30;;
14015;SDS011;7083;48.854;9.158;2023-06-10T10:07:11;4.87;;;4.47;;
14015;SDS011;7083;48.854;9.158;2023-06-10T10:09:38;4.30;;;4.10;;
14015;SDS011;7083;48.854;9.158;2023-06-10T10:12:07;4.97;;;4.57;;
14015;SDS011;7083;48.854;9.158;2023-06-10T10:14:38;4.60;;;4.30;;
14015;SDS011;7083;48.854;9.158;2023-06-10T10:17:07;4.10;;;3.90;;
14015;SDS011;7083;48.854;9.158;2023-06-10T10:19:37;4.20;;;3.90;;
14015;SDS011;7083;48.854;9.158;2023-06-10T10:22:10;4.17;;;3.87;;
14015;SDS011;7083;48.854;9.158;2023-06-10T10:24:52;10.33;;;4.63;;
14015;SDS011;7083;48.854;9.158;2023-06-10T10:27:28;4.53;;;4.33;;
14015;SDS011;7083;48.854;9.158;2023-06-10T10:30:03;6.20;;;4.17;;
14015;SDS011;7083;48.854;9.158;2023-06-10T10:32:35;4.37;;;4.07;;
14015;SDS011;7083;48.854;9.158;2023-06-10T10:35:08;4.83;;;4.40;;
14015;SDS011;7083;48.854;9.158;2023-06-10T10:37:38;4.20;;;4.00;;
14015;SDS011;7083;48.854;9.158;2023-06-10T10:40:06;4.60;;;4.30;;
14015;SDS011;7083;48.854;9.158;2023-06-10T10:42:34;5.10;;;4.67;;
14015;SDS011;7083;48.854;9.158;2023-06-10T10:45:03;4.30;;;4.10;;
14015;SDS011;7083;48.854;9.158;2023-06-10T10:47:32;4.23;;;4.03;;
14015;SDS011;7083;48.854;9.158;2023-06-10T10:50:00;4.43;;;4.23;;
14015;SDS011;7083;48.854;9.158;2023-06-10T10:52:27;3.87;;;3.67;;
14015;SDS011;7083;48.854;9.158;2023-06-10T10:55:16;4.37;;;4.13;;
14015;SDS011;7083;48.854;9.158;2023-06-10T10:57:43;4.27;;;3.87;;
14015;SDS011;7083;48.854;9.158;2023-06-10T11:00:12;4.00;;;3.80;;
14015;SDS011;7083;48.854;9.158;2023-06-10T11:02:50;4.43;;;4.23;;
14015;SDS011;7083;48.854;9.158;2023-06-10T11:05:20;4.07;;;3.67;;
14015;SDS011;7083;48.854;9.158;2023-06-10T11:07:57;4.03;;;3.83;;
14015;SDS011;7083;48.854;9.158;2023-06-10T11:10:31;3.97;;;3.77;;
14015;SDS011;7083;48.854;9.158;2023-06-10T11:12:58;3.53;;;3.33;;
14015;SDS011;7083;48.854;9.158;2023-06-10T11:15:27;4.13;;;3.77;;
14015;SDS011;7083;48.854;9.158;2023-06-10T11:20:53;3.90;;;3.57;;
14015;SDS011;7083;48.854;9.158;2023-06-10T11:23:25;3.73;;;3.53;;
14015;SDS011;7083;48.854;9.158;2023-06-10T11:26:09;4.30;;;3.90;;
14015;SDS011;7083;48.854;9.158;2023-06-10T11:28:36;3.03;;;2.93;;
14015;SDS011;7083;48.854;9.158;2023-06-10T11:31:05;4.50;;;4.20;;
14015;SDS011;7083;48.854;9.158;2023-06-10T11:33:31;3.40;;;3.20;;
14015;SDS011;7083;48.854;9.158;2023-06-10T11:35:58;4.03;;;3.83;;
14015;SDS011;7083;48.854;9.158;2023-06-10T11:38:25;5.00;;;3.70;;
14015;SDS011;7083;48.854;9.158;2023-06-10T11:40:54;3.93;;;3.73;;
14015;SDS011;7083;48.854;9.158;2023-06-10T11:43:22;3.83;;;3.63;;
14015;SDS011;7083;48.854;9.158;2023-06-10T11:45:53;4.00;;;3.63;;
14015;SDS011;7083;48.854;9.158;2023-06-10T11:48:22;3.80;;;3.50;;
14015;SDS011;7083;48.854;9.158;2023-06-10T11:50:48;5.82;;;3.50;;
14015;SDS011;7083;48.854;9.158;2023-06-10T11:53:15;3.80;;;3.50;;
14015;SDS011;7083;48.854;9.158;2023-06-10T11:55:44;3.47;;;3.28;;
14015;SDS011;7083;48.854;9.158;2023-06-10T11:58:12;3.90;;;3.67;;
14015;SDS011;7083;48.854;9.158;2023-06-10T12:00:43;3.70;;;3.50;;
14015;SDS011;7083;48.854;9.158;2023-06-10T12:03:11;3.72;;;3.53;;
14015;SDS011;7083;48.854;9.158;2023-06-10T12:05:39;3.45;;;3.35;;
14015;SDS011;7083;48.854;9.158;2023-06-10T12:08:09;3.65;;;3.35;;
14015;SDS011;7083;48.854;9.158;2023-06-10T12:10:40;4.32;;;3.45;;
14015;SDS011;7083;48.854;9.158;2023-06-10T12:13:07;4.90;;;3.55;;
14015;SDS011;7083;48.854;9.158;2023-06-10T12:15:34;3.15;;;3.00;;
14015;SDS011;7083;48.854;9.158;2023-06-10T12:18:01;3.47;;;3.35;;
14015;SDS011;7083;48.854;9.158;2023-06-10T12:20:28;3.67;;;3.38;;
14015;SDS011;7083;48.854;9.158;2023-06-10T12:22:58;3.67;;;3.47;;
14015;SDS011;7083;48.854;9.158;2023-06-10T12:25:26;3.28;;;3.17;;
14015;SDS011;7083;48.854;9.158;2023-06-10T12:27:55;3.65;;;3.45;;
14015;SDS011;7083;48.854;9.158;2023-06-10T12:30:22;3.40;;;3.20;;
14015;SDS011;7083;48.854;9.158;2023-06-10T12:32:51;3.35;;;3.15;;
14015;SDS011;7083;48.854;9.158;2023-06-10T12:35:19;3.42;;;3.15;;
14015;SDS011;7083;48.854;9.158;2023-06-10T12:37:56;3.42;;;3.20;;
14015;SDS011;7083;48.854;9.158;2023-06-10T12:40:29;3.30;;;3.17;;
14015;SDS011;7083;48.854;9.158;2023-06-10T12:42:57;3.47;;;3.17;;
14015;SDS011;7083;48.854;9.158;2023-06-10T12:45:27;3.20;;;2.90;;
14015;SDS011;7083;48.854;9.158;2023-06-10T12:50:30;3.10;;;2.80;;
14015;SDS011;7083;48.854;9.158;2023-06-10T12:52:57;3.08;;;2.97;;
14015;SDS011;7083;48.854;9.158;2023-06-10T12:55:25;2.53;;;2.42;;
14015;SDS011;7083;48.854;9.158;2023-06-10T12:57:53;2.45;;;2.35;;
14015;SDS011;7083;48.854;9.158;2023-06-10T13:00:20;3.05;;;2.45;;
14015;SDS011;7083;48.854;9.158;2023-06-10T13:02:48;2.35;;;2.28;;
14015;SDS011;7083;48.854;9.158;2023-06-10T13:05:16;2.40;;;2.30;;
14015;SDS011;7083;48.854;9.158;2023-06-10T13:07:44;2.28;;;2.17;;
14015;SDS011;7083;48.854;9.158;2023-06-10T13:10:10;2.55;;;2.35;;
14015;SDS011;7083;48.854;9.158;2023-06-10T13:12:38;2.30;;;2.20;;
14015;SDS011;7083;48.854;9.158;2023-06-10T13:15:07;2.50;;;2.40;;
14015;SDS011;7083;48.854;9.158;2023-06-10T13:17:34;2.70;;;2.60;;
14015;SDS011;7083;48.854;9.158;2023-06-10T13:20:01;3.00;;;2.80;;
14015;SDS011;7083;48.854;9.158;2023-06-10T13:22:29;2.70;;;2.50;;
14015;SDS011;7083;48.854;9.158;2023-06-10T13:24:57;2.25;;;2.15;;
14015;SDS011;7083;48.854;9.158;2023-06-10T13:27:24;2.13;;;2.10;;
14015;SDS011;7083;48.854;9.158;2023-06-10T13:29:52;2.75;;;2.55;;
14015;SDS011;7083;48.854;9.158;2023-06-10T13:32:20;2.17;;;2.08;;
14015;SDS011;7083;48.854;9.158;2023-06-10T13:34:46;2.55;;;2.45;;
14015;SDS011;7083;48.854;9.158;2023-06-10T13:37:14;2.35;;;2.25;;
14015;SDS011;7083;48.854;9.158;2023-06-10T13:39:42;1.90;;;1.90;;
14015;SDS011;7083;48.854;9.158;2023-06-10T13:42:08;2.30;;;2.20;;
14015;SDS011;7083;48.854;9.158;2023-06-10T13:44:35;2.80;;;2.60;;
14015;SDS011;7083;48.854;9.158;2023-06-10T13:47:02;2.25;;;2.15;;
14015;SDS011;7083;48.854;9.158;2023-06-10T13:49:30;2.42;;;2.33;;
14015;SDS011;7083;48.854;9.158;2023-06-10T13:51:57;3.10;;;2.70;;
14015;SDS011;7083;48.854;9.158;2023-06-10T13:54:24;2.65;;;2.55;;
14015;SDS011;7083;48.854;9.158;2023-06-10T13:56:50;2.58;;;2.40;;
14015;SDS011;7083;48.854;9.158;2023-06-10T13:59:18;2.35;;;2.25;;
14015;SDS011;7083;48.854;9.158;2023-06-10T14:01:45;2.25;;;2.15;;
14015;SDS011;7083;48.854;9.158;2023-06-10T14:04:11;2.08;;;2.03;;
14015;SDS011;7083;48.854;9.158;2023-06-10T14:06:39;1.92;;;1.92;;
14015;SDS011;7083;48.854;9.158;2023-06-10T14:09:06;2.45;;;2.35;;
14015;SDS011;7083;48.854;9.158;2023-06-10T14:11:33;2.85;;;2.10;;
14015;SDS011;7083;48.854;9.158;2023-06-10T14:14:00;7.65;;;2.40;;
14015;SDS011;7083;48.854;9.158;2023-06-10T14:16:27;2.08;;;1.98;;
14015;SDS011;7083;48.854;9.158;2023-06-10T14:18:53;2.28;;;2.13;;
14015;SDS011;7083;48.854;9.158;2023-06-10T14:21:20;3.17;;;2.23;;
14015;SDS011;7083;48.854;9.158;2023-06-10T14:23:49;2.20;;;2.10;;
14015;SDS011;7083;48.854;9.158;2023-06-10T14:26:17;2.03;;;2.03;;
14015;SDS011;7083;48.854;9.158;2023-06-10T14:28:46;2.13;;;2.03;;
14015;SDS011;7083;48.854;9.158;2023-06-10T14:31:13;1.92;;;1.83;;
14015;SDS011;7083;48.854;9.158;2023-06-10T14:33:39;2.35;;;1.95;;
14015;SDS011;7083;48.854;9.158;2023-06-10T14:36:08;2.30;;;2.20;;
14015;SDS011;7083;48.854;9.158;2023-06-10T14:38:35;2.30;;;2.10;;
14015;SDS011;7083;48.854;9.158;2023-06-10T14:41:03;2.80;;;2.40;;
14015;SDS011;7083;48.854;9.158;2023-06-10T14:43:29;2.60;;;2.40;;
14015;SDS011;7083;48.854;9.158;2023-06-10T14:45:56;2.30;;;2.20;;
14015;SDS011;7083;48.854;9.158;2023-06-10T14:48:23;1.77;;;1.77;;
14015;SDS011;7083;48.854;9.158;2023-06-10T14:50:49;2.70;;;2.42;;
14015;SDS011;7083;48.854;9.158;2023-06-10T14:53:16;2.38;;;2.20;;
14015;SDS011;7083;48.854;9.158;2023-06-10T14:55:43;2.40;;;2.30;;
14015;SDS011;7083;48.854;9.158;2023-06-10T14:58:11;2.15;;;2.15;;
14015;SDS011;7083;48.854;9.158;2023-06-10T15:00:38;2.35;;;2.25;;
14015;SDS011;7083;48.854;9.158;2023-06-10T15:03:04;2.03;;;2.03;;
14015;SDS011;7083;48.854;9.158;2023-06-10T15:05:31;3.75;;;1.90;;
14015;SDS011;7083;48.854;9.158;2023-06-10T15:07:59;2.40;;;2.28;;
14015;SDS011;7083;48.854;9.158;2023-06-10T15:10:26;2.15;;;2.13;;